Time;durP1;ratioP1;P1;durP2;ratioP2;P2;SDS_P1;SDS_P2;PMS_P1;PMS_P2;Temp;Humidity;BMP_temperature;BMP_pressure;BME280_temperature;BME280_humidity;BME280_pressure;Samples;Min_cycle;Max_cycle;Signal;HPM_P1;HPM_P2
2023/05/25 00:03:08;;;;;;;26.98;5.88;;;;;;;7.66;100.00;102610.91;10394295;28;20041;-72
2023/05/25 00:08:09;;;;;;;14.10;5.75;;;;;;;7.60;100.00;102607.03;10400939;28;20048;-72
2023/05/25 00:13:09;;;;;;;13.80;5.78;;;;;;;7.53;100.00;102599.81;10411367;28;20224;-71
2023/05/25 00:18:10;;;;;;;14.63;5.72;;;;;;;7.54;100.00;102606.97;10407833;28;20056;-72
2023/05/25 00:23:10;;;;;;;21.98;6.90;;;;;;;7.53;100.00;102599.81;10400326;28;20033;-71
2023/05/25 00:28:11;;;;;;;21.38;6.93;;;;;;;7.55;100.00;102603.19;10416203;28;20398;-71
2023/05/25 00:33:11;;;;;;;21.67;7.50;;;;;;;7.50;100.00;102587.31;10366620;28;20034;-71
2023/05/25 00:38:16;;;;;;;28.58;6.63;;;;;;;7.59;100.00;102610.00;10374062;28;20034;-72
2023/05/25 00:43:16;;;;;;;20.38;7.80;;;;;;;7.42;100.00;102584.69;10412592;28;20405;-72
2023/05/25 00:48:17;;;;;;;16.65;6.90;;;;;;;7.53;100.00;102608.88;10396600;28;20037;-71
2023/05/25 00:53:17;;;;;;;15.52;7.25;;;;;;;7.51;100.00;102607.38;10416899;28;20446;-70
2023/05/25 00:58:20;;;;;;;15.07;7.30;;;;;;;7.40;100.00;102594.97;10415509;28;20038;-71
2023/05/25 01:03:21;;;;;;;21.35;7.32;;;;;;;7.32;100.00;102595.94;10406631;28;20491;-71
2023/05/25 01:08:22;;;;;;;15.15;7.03;;;;;;;7.23;100.00;102592.44;10411058;28;20030;-70
2023/05/25 01:13:22;;;;;;;18.65;7.30;;;;;;;7.16;100.00;102604.38;10356845;28;20045;-71
2023/05/25 01:18:23;;;;;;;14.60;6.53;;;;;;;7.08;100.00;102602.56;10372020;28;20101;-71
2023/05/25 01:29:03;;;;;;;23.45;8.10;;;;;;;7.01;100.00;102621.66;10384339;28;20490;-71
2023/05/25 01:34:03;;;;;;;16.30;7.70;;;;;;;7.00;100.00;102622.66;10372332;28;20102;-71
2023/05/25 01:39:05;;;;;;;20.17;8.02;;;;;;;6.89;100.00;102597.66;10367863;28;20030;-72
2023/05/25 01:44:06;;;;;;;25.73;7.50;;;;;;;6.79;100.00;102596.03;10385991;28;20528;-71
2023/05/25 01:49:18;;;;;;;24.88;8.40;;;;;;;6.83;100.00;102610.19;10379492;28;20045;-71
2023/05/25 01:54:19;;;;;;;23.67;7.90;;;;;;;6.91;100.00;102623.81;10397301;28;20110;-71
2023/05/25 01:59:20;;;;;;;22.85;9.20;;;;;;;6.77;100.00;102616.41;10412068;28;20029;-71
2023/05/25 02:04:23;;;;;;;16.10;7.72;;;;;;;6.82;100.00;102630.38;10409900;28;20034;-71
2023/05/25 02:09:24;;;;;;;23.13;7.63;;;;;;;6.71;100.00;102618.00;10343640;28;20042;-72
2023/05/25 02:14:25;;;;;;;17.92;8.48;;;;;;;6.73;100.00;102628.78;10378521;28;20029;-72
2023/05/25 02:19:25;;;;;;;29.90;8.60;;;;;;;6.70;100.00;102624.53;10373921;28;20034;-71
2023/05/25 02:24:26;;;;;;;29.70;9.05;;;;;;;6.65;100.00;102636.00;10368577;28;20044;-71
2023/05/25 02:29:26;;;;;;;16.58;7.32;;;;;;;6.62;100.00;102624.59;10370869;28;20041;-71
2023/05/25 02:34:26;;;;;;;23.92;8.23;;;;;;;6.67;100.00;102623.00;10370480;28;20042;-71
2023/05/25 02:39:27;;;;;;;18.95;7.50;;;;;;;6.70;100.00;102627.28;10367962;28;20037;-71
2023/05/25 02:44:27;;;;;;;21.17;7.97;;;;;;;6.69;100.00;102624.72;10370448;28;20046;-71
2023/05/25 02:49:29;;;;;;;19.25;8.13;;;;;;;6.60;100.00;102622.06;10363792;28;20053;-70
2023/05/25 02:54:30;;;;;;;32.67;9.82;;;;;;;6.60;100.00;102627.53;10368944;28;20041;-71
2023/05/25 02:59:30;;;;;;;21.15;8.95;;;;;;;6.59;100.00;102625.81;10354511;28;20034;-71
2023/05/25 03:04:32;;;;;;;17.95;8.10;;;;;;;6.54;100.00;102633.72;10356930;28;20038;-71
2023/05/25 03:09:33;;;;;;;23.58;8.38;;;;;;;6.47;100.00;102643.72;10386860;28;20056;-72
2023/05/25 03:14:33;;;;;;;23.00;7.90;;;;;;;6.41;100.00;102650.78;10375591;28;20092;-71
2023/05/25 03:19:34;;;;;;;19.10;8.10;;;;;;;6.37;100.00;102648.59;10353689;28;20069;-71
2023/05/25 03:24:34;;;;;;;23.10;8.55;;;;;;;6.34;100.00;102659.88;10417570;28;20038;-71
2023/05/25 03:29:35;;;;;;;17.17;8.68;;;;;;;6.31;100.00;102660.28;10418887;28;20041;-71
2023/05/25 03:34:36;;;;;;;20.40;8.82;;;;;;;6.33;100.00;102663.69;10418124;28;20074;-71
2023/05/25 03:39:36;;;;;;;21.67;10.32;;;;;;;6.34;100.00;102663.47;10414729;28;20064;-72
2023/05/25 03:44:37;;;;;;;22.92;9.23;;;;;;;6.35;100.00;102661.59;10402241;28;20053;-70
2023/05/25 03:49:37;;;;;;;22.08;9.13;;;;;;;6.43;100.00;102680.69;10389548;28;20391;-70
2023/05/25 03:54:38;;;;;;;21.38;9.40;;;;;;;6.56;100.00;102678.19;10396568;28;20238;-71
2023/05/25 03:59:39;;;;;;;23.02;10.00;;;;;;;6.71;100.00;102677.38;10375934;28;20034;-70
2023/05/25 04:04:40;;;;;;;22.35;9.63;;;;;;;6.80;100.00;102687.22;10378978;28;20042;-72
2023/05/25 04:09:41;;;;;;;25.45;9.82;;;;;;;6.85;100.00;102687.53;10416076;28;20065;-70
2023/05/25 04:14:41;;;;;;;27.88;10.43;;;;;;;6.54;100.00;102627.41;10388587;28;20033;-71
2023/05/25 04:19:42;;;;;;;21.05;10.55;;;;;;;7.02;100.00;102694.53;10408882;28;20059;-70
2023/05/25 04:24:42;;;;;;;26.73;9.82;;;;;;;7.07;100.00;102689.38;10406168;28;20061;-70
2023/05/25 04:29:43;;;;;;;22.80;9.32;;;;;;;7.18;100.00;102689.94;10413446;28;20056;-73
2023/05/25 04:34:45;;;;;;;25.20;10.18;;;;;;;7.27;100.00;102694.28;10406513;28;20037;-71
2023/05/25 04:39:46;;;;;;;20.75;8.13;;;;;;;7.34;100.00;102689.78;10416346;28;20037;-70
2023/05/25 04:44:46;;;;;;;30.08;10.30;;;;;;;7.40;100.00;102693.63;10415056;28;20049;-70
2023/05/25 04:49:47;;;;;;;21.90;9.13;;;;;;;7.51;100.00;102689.59;10398447;28;20065;-71
2023/05/25 04:54:47;;;;;;;19.90;9.27;;;;;;;7.60;100.00;102685.69;10369218;28;20038;-72
2023/05/25 04:59:48;;;;;;;31.65;11.15;;;;;;;7.79;100.00;102693.34;10368845;28;20030;-72
2023/05/25 05:04:52;;;;;;;27.98;10.13;;;;;;;7.98;100.00;102696.50;10407941;28;20037;-72
2023/05/25 05:09:52;;;;;;;26.77;10.07;;;;;;;8.14;100.00;102701.75;10409447;28;20052;-71
2023/05/25 05:14:54;;;;;;;27.10;10.55;;;;;;;8.35;100.00;102702.84;10406708;28;20033;-71
2023/05/25 05:19:55;;;;;;;32.55;10.32;;;;;;;8.59;100.00;102707.97;10414385;28;20038;-71
2023/05/25 05:24:56;;;;;;;27.67;10.88;;;;;;;8.89;100.00;102710.59;10384202;28;20062;-71
2023/05/25 05:29:56;;;;;;;27.15;10.30;;;;;;;9.34;100.00;102724.88;10363648;28;20081;-70
2023/05/25 05:34:57;;;;;;;21.35;10.60;;;;;;;9.77;100.00;102732.13;10369975;28;20084;-71
2023/05/25 05:39:57;;;;;;;30.27;10.20;;;;;;;10.15;100.00;102735.28;10373971;28;20048;-71
2023/05/25 05:44:58;;;;;;;30.20;10.25;;;;;;;10.53;100.00;102751.28;10370489;28;20048;-71
2023/05/25 05:49:58;;;;;;;21.45;8.35;;;;;;;10.75;100.00;102743.72;10373476;28;20048;-71
2023/05/25 05:54:59;;;;;;;23.00;6.75;;;;;;;10.98;100.00;102754.34;10409692;28;20037;-72
2023/05/25 05:59:59;;;;;;;20.80;5.57;;;;;;;11.24;100.00;102753.47;10395426;28;20033;-69
2023/05/25 06:05:00;;;;;;;23.65;4.60;;;;;;;11.51;100.00;102754.31;10411562;28;20323;-71
2023/05/25 06:10:01;;;;;;;13.30;3.42;;;;;;;11.61;100.00;102740.06;10412179;28;20041;-72
2023/05/25 06:15:01;;;;;;;9.85;2.80;;;;;;;11.77;100.00;102738.75;10383559;28;20121;-71
2023/05/25 06:20:02;;;;;;;14.95;4.00;;;;;;;11.98;100.00;102742.31;10349279;28;20038;-71
2023/05/25 06:25:03;;;;;;;6.28;3.22;;;;;;;11.95;100.00;102754.66;10352835;28;20049;-71
2023/05/25 06:30:04;;;;;;;13.90;3.63;;;;;;;11.52;100.00;102736.69;10371682;28;20060;-71
2023/05/25 06:35:05;;;;;;;16.25;3.50;;;;;;;11.54;100.00;102768.75;10354080;28;20038;-71
2023/05/25 06:40:09;;;;;;;17.75;3.75;;;;;;;11.52;100.00;102768.94;10375015;28;20038;-72
2023/05/25 06:45:10;;;;;;;17.10;3.95;;;;;;;11.71;100.00;102775.50;10381643;28;20042;-72
2023/05/25 06:50:11;;;;;;;12.40;2.95;;;;;;;12.13;100.00;102772.41;10361739;28;20045;-71
2023/05/25 06:55:11;;;;;;;25.58;5.32;;;;;;;12.30;100.00;102757.91;10375280;28;20065;-71
2023/05/25 07:00:13;;;;;;;13.20;2.97;;;;;;;12.48;100.00;102754.38;10377933;28;20080;-71
2023/05/25 07:05:13;;;;;;;17.88;3.78;;;;;;;12.55;100.00;102775.59;10399760;28;20057;-73
2023/05/25 07:10:14;;;;;;;20.15;4.85;;;;;;;12.53;100.00;102773.09;10419640;28;20033;-73
2023/05/25 07:15:15;;;;;;;11.52;3.17;;;;;;;12.50;100.00;102707.22;10419812;28;20053;-70
2023/05/25 07:20:15;;;;;;;18.50;3.80;;;;;;;13.15;100.00;102775.19;10379270;28;20030;-71
2023/05/25 07:25:16;;;;;;;18.40;3.78;;;;;;;13.73;100.00;102783.22;10389510;28;20037;-70
2023/05/25 07:30:16;;;;;;;16.67;3.38;;;;;;;14.32;100.00;102781.69;10417416;28;20060;-71
2023/05/25 07:35:17;;;;;;;18.55;4.97;;;;;;;14.48;100.00;102782.09;10419725;28;20052;-72
2023/05/25 07:40:17;;;;;;;14.63;3.88;;;;;;;14.17;100.00;102777.63;10420087;28;20037;-69
2023/05/25 07:45:18;;;;;;;18.63;3.65;;;;;;;14.39;100.00;102780.75;10401407;28;20045;-70
2023/05/25 07:50:22;;;;;;;21.23;3.97;;;;;;;14.45;100.00;102780.66;10413565;28;20108;-71
2023/05/25 07:55:22;;;;;;;22.13;3.30;;;;;;;14.64;100.00;102778.72;10371021;28;20049;-72
2023/05/25 08:00:23;;;;;;;21.50;3.53;;;;;;;14.75;100.00;102784.53;10358406;28;20041;-71
2023/05/25 08:05:24;;;;;;;19.38;3.05;;;;;;;14.27;100.00;102797.31;10374176;28;20038;-71
2023/05/25 08:10:30;;;;;;;24.27;3.53;;;;;;;13.51;100.00;102808.53;10377134;28;20038;-71
2023/05/25 08:15:30;;;;;;;21.23;3.77;;;;;;;13.69;100.00;102815.22;10416852;28;20034;-71
2023/05/25 08:20:31;;;;;;;21.75;3.75;;;;;;;14.65;100.00;102801.72;10417209;28;20037;-70
2023/05/25 08:25:31;;;;;;;14.55;2.90;;;;;;;14.75;100.00;102807.56;10411782;28;20038;-73
2023/05/25 08:30:32;;;;;;;20.20;3.92;;;;;;;14.61;100.00;102809.66;10415530;28;20052;-71
2023/05/25 08:35:33;;;;;;;14.77;3.60;;;;;;;14.76;100.00;102825.91;10402637;28;20034;-71
2023/05/25 08:40:33;;;;;;;23.17;4.30;;;;;;;15.02;100.00;102807.16;10391884;28;20049;-70
2023/05/25 08:45:34;;;;;;;17.73;3.45;;;;;;;15.27;100.00;102804.19;10381659;28;20049;-70
2023/05/25 08:50:34;;;;;;;24.05;3.40;;;;;;;14.67;100.00;102796.78;10394058;28;20041;-67
2023/05/25 08:55:35;;;;;;;12.65;3.15;;;;;;;14.91;100.00;102822.69;10375512;28;20045;-71
2023/05/25 09:00:39;;;;;;;23.88;4.50;;;;;;;14.46;100.00;102835.00;10404342;28;20096;-70
2023/05/25 09:05:40;;;;;;;24.77;4.32;;;;;;;14.28;100.00;102824.78;10413116;28;20041;-71
2023/05/25 09:10:40;;;;;;;16.88;3.85;;;;;;;14.41;100.00;102817.38;10415728;28;20087;-71
2023/05/25 09:15:41;;;;;;;16.98;3.30;;;;;;;14.36;100.00;102828.31;10380859;28;20475;-71
2023/05/25 09:20:41;;;;;;;11.55;3.42;;;;;;;14.82;100.00;102827.72;10413844;28;20057;-71
2023/05/25 09:25:42;;;;;;;24.40;5.00;;;;;;;14.69;100.00;102836.22;10413064;28;20374;-73
2023/05/25 09:30:43;;;;;;;15.75;3.35;;;;;;;15.27;100.00;102831.94;10410833;28;20296;-72
2023/05/25 09:35:44;;;;;;;23.83;4.10;;;;;;;16.10;100.00;102830.06;10409570;28;20030;-70
2023/05/25 09:40:44;;;;;;;20.08;3.58;;;;;;;16.33;100.00;102835.59;10415012;28;20117;-69
2023/05/25 09:45:45;;;;;;;21.35;4.80;;;;;;;16.26;100.00;102828.47;10412326;28;20076;-71
2023/05/25 09:50:46;;;;;;;17.38;3.65;;;;;;;15.85;100.00;102808.94;10398115;28;20551;-72
2023/05/25 09:55:48;;;;;;;15.77;3.40;;;;;;;15.37;100.00;102840.53;10377406;28;20046;-71
2023/05/25 10:00:54;;;;;;;19.60;4.78;;;;;;;15.23;100.00;102845.44;10394900;28;20111;-72
2023/05/25 10:05:54;;;;;;;17.77;3.42;;;;;;;15.28;100.00;102830.88;10396117;28;20356;-71
2023/05/25 10:10:55;;;;;;;15.65;3.00;;;;;;;15.47;100.00;102851.91;10394663;28;20120;-71
2023/05/25 10:15:55;;;;;;;12.85;3.17;;;;;;;15.67;100.00;102853.50;10410818;28;20033;-71
2023/05/25 10:21:02;;;;;;;14.57;2.80;;;;;;;15.97;100.00;102849.78;10411185;28;20512;-71
2023/05/25 10:26:03;;;;;;;14.63;3.65;;;;;;;15.78;100.00;102847.13;10412485;28;20409;-71
2023/05/25 10:31:03;;;;;;;21.85;4.20;;;;;;;15.59;100.00;102873.28;10394994;28;20046;-71
2023/05/25 10:36:04;;;;;;;18.83;3.55;;;;;;;15.04;100.00;102875.19;10412388;28;20038;-70
2023/05/25 10:41:05;;;;;;;18.25;4.60;;;;;;;14.96;100.00;102861.66;10395707;28;20476;-71
2023/05/25 10:46:05;;;;;;;17.48;3.30;;;;;;;15.03;100.00;102861.56;10395017;28;20500;-72
2023/05/25 10:51:06;;;;;;;17.23;4.00;;;;;;;15.52;100.00;102860.38;10369218;28;20045;-71
2023/05/25 10:56:08;;;;;;;15.80;3.40;;;;;;;15.69;100.00;102863.28;10371767;28;20045;-71
2023/05/25 11:01:13;;;;;;;20.33;4.90;;;;;;;15.77;100.00;102848.19;10386803;28;20038;-71
2023/05/25 11:06:14;;;;;;;19.33;4.15;;;;;;;16.00;100.00;102846.50;10387670;28;20510;-72
2023/05/25 11:11:14;;;;;;;17.92;4.55;;;;;;;15.99;100.00;102845.66;10398541;28;20034;-71
2023/05/25 11:16:25;;;;;;;15.02;3.70;;;;;;;16.34;100.00;102851.16;10410614;28;20044;-71
2023/05/25 11:21:26;;;;;;;27.80;6.63;;;;;;;16.71;100.00;102844.41;10411518;28;20098;-72
2023/05/25 11:26:31;;;;;;;19.02;4.53;;;;;;;16.48;100.00;102842.56;10416823;28;20033;-71
2023/05/25 11:31:32;;;;;;;20.92;5.07;;;;;;;16.60;100.00;102848.94;10357552;28;20043;-71
2023/05/25 11:36:35;;;;;;;22.17;4.63;;;;;;;16.79;100.00;102843.19;10335520;28;20069;-71
2023/05/25 11:41:36;;;;;;;19.83;4.38;;;;;;;17.54;99.88;102823.38;10414234;28;20041;-71
2023/05/25 11:46:37;;;;;;;13.60;4.25;;;;;;;17.14;99.81;102829.97;10400680;28;20045;-72
2023/05/25 11:51:37;;;;;;;20.48;3.72;;;;;;;17.04;99.15;102824.22;10418984;28;20042;-71
2023/05/25 11:56:38;;;;;;;19.65;3.70;;;;;;;17.00;97.90;102827.75;10401075;28;20038;-72
2023/05/25 12:01:38;;;;;;;18.33;3.30;;;;;;;17.66;98.41;102826.09;10402983;28;20042;-70
2023/05/25 12:06:39;;;;;;;17.77;3.67;;;;;;;18.76;96.04;102817.78;10418867;28;20041;-71
2023/05/25 12:11:44;;;;;;;16.63;3.78;;;;;;;19.47;92.84;102810.38;10417710;28;20075;-71
2023/05/25 12:16:44;;;;;;;13.10;3.72;;;;;;;20.81;85.67;102784.78;10415976;28;20041;-71
2023/05/25 12:21:46;;;;;;;20.65;4.38;;;;;;;19.80;80.76;102783.25;10416328;28;20033;-72
2023/05/25 12:26:48;;;;;;;14.27;3.28;;;;;;;19.78;87.22;102799.44;10383061;28;20038;-72
2023/05/25 12:31:48;;;;;;;14.32;4.10;;;;;;;19.14;86.49;102818.78;10416986;28;20041;-72
2023/05/25 12:36:52;;;;;;;16.27;3.80;;;;;;;19.19;89.18;102825.50;10398718;28;20393;-71
2023/05/25 12:41:53;;;;;;;20.58;4.43;;;;;;;19.75;86.08;102807.25;10416776;28;20038;-71
2023/05/25 12:46:54;;;;;;;18.08;4.28;;;;;;;19.06;87.66;102813.66;10416572;28;20045;-70
2023/05/25 12:51:55;;;;;;;19.83;3.83;;;;;;;18.64;89.84;102825.47;10415576;28;20426;-70
2023/05/25 12:56:56;;;;;;;23.85;4.35;;;;;;;18.52;90.08;102822.84;10415493;28;20053;-71
2023/05/25 13:01:56;;;;;;;17.55;3.60;;;;;;;19.28;89.97;102813.56;10417488;28;20056;-71
2023/05/25 13:06:57;;;;;;;15.07;3.33;;;;;;;19.75;82.11;102786.84;10396768;28;20052;-70
2023/05/25 13:11:58;;;;;;;13.77;3.25;;;;;;;18.80;84.64;102804.19;10372533;28;20045;-67
2023/05/25 13:17:01;;;;;;;17.80;3.90;;;;;;;19.06;83.83;102794.13;10374100;28;20038;-71
2023/05/25 13:22:01;;;;;;;24.73;5.15;;;;;;;19.10;85.23;102800.00;10374578;28;20033;-71
2023/05/25 13:27:02;;;;;;;19.13;4.28;;;;;;;18.75;86.08;102799.38;10373645;28;20499;-70
2023/05/25 13:32:03;;;;;;;14.50;3.13;;;;;;;18.34;84.93;102796.13;10377440;28;20069;-70
2023/05/25 13:37:03;;;;;;;10.77;2.80;;;;;;;18.85;87.07;102803.41;10413580;28;20034;-71
2023/05/25 13:42:04;;;;;;;15.27;4.45;;;;;;;19.46;81.35;102792.78;10411723;28;20072;-71
2023/05/25 13:47:05;;;;;;;19.75;4.00;;;;;;;18.81;82.89;102793.88;10414348;28;20042;-71
2023/05/25 13:52:05;;;;;;;16.33;3.47;;;;;;;19.84;83.57;102788.00;10414677;28;20045;-71
2023/05/25 13:57:06;;;;;;;16.30;4.35;;;;;;;20.25;81.34;102791.00;10413987;28;20034;-71
2023/05/25 14:02:06;;;;;;;22.90;4.93;;;;;;;18.91;81.33;102741.81;10415345;28;20037;-70
2023/05/25 14:07:07;;;;;;;17.52;3.92;;;;;;;19.02;81.23;102798.56;10413173;28;20045;-72
2023/05/25 14:12:07;;;;;;;19.58;4.35;;;;;;;19.98;80.83;102793.13;10412618;28;20041;-71
2023/05/25 14:17:08;;;;;;;19.65;4.63;;;;;;;18.79;82.18;102793.28;10413139;28;20107;-70
2023/05/25 14:22:08;;;;;;;17.00;4.70;;;;;;;18.78;81.79;102786.00;10411341;28;20033;-70
2023/05/25 14:27:09;;;;;;;17.42;4.22;;;;;;;19.78;79.00;102777.09;10413764;28;20040;-71
2023/05/25 14:32:10;;;;;;;16.60;5.53;;;;;;;20.28;76.65;102770.91;10411300;28;20057;-71
2023/05/25 14:37:10;;;;;;;19.40;4.13;;;;;;;19.83;78.36;102750.00;10410585;28;20057;-69
2023/05/25 14:42:11;;;;;;;13.25;3.72;;;;;;;20.44;78.69;102785.75;10372133;28;20064;-70
2023/05/25 14:47:11;;;;;;;18.55;4.07;;;;;;;21.27;75.87;102775.53;10394441;28;20041;-71
2023/05/25 14:52:12;;;;;;;16.42;3.60;;;;;;;20.74;76.06;102779.44;10412333;28;20088;-70
2023/05/25 14:57:15;;;;;;;15.95;3.95;;;;;;;20.67;75.86;102772.44;10413422;28;20029;-70
2023/05/25 15:02:15;;;;;;;18.95;4.57;;;;;;;20.14;74.42;102780.91;10400006;28;20049;-70
2023/05/25 15:07:16;;;;;;;19.77;4.70;;;;;;;20.77;75.92;102778.03;10417019;28;20044;-71
2023/05/25 15:12:16;;;;;;;24.05;4.07;;;;;;;21.15;74.74;102778.66;10417212;28;20030;-71
2023/05/25 15:17:17;;;;;;;17.73;3.75;;;;;;;19.94;76.27;102785.28;10424819;28;20034;-70
2023/05/25 15:22:17;;;;;;;15.65;4.60;;;;;;;19.74;75.29;102773.97;10376778;28;20107;-70
2023/05/25 15:27:18;;;;;;;14.63;3.65;;;;;;;20.45;76.08;102786.63;10418957;28;20083;-71
2023/05/25 15:32:18;;;;;;;19.27;4.32;;;;;;;19.61;76.48;102785.63;10418069;28;20092;-71
2023/05/25 15:37:19;;;;;;;14.98;3.70;;;;;;;20.39;76.15;102794.16;10417704;28;20060;-71
2023/05/25 15:42:19;;;;;;;18.23;4.15;;;;;;;20.77;74.22;102780.84;10416991;28;20033;-70
2023/05/25 15:47:20;;;;;;;16.10;3.33;;;;;;;20.85;74.16;102788.69;10416457;28;20313;-71
2023/05/25 15:52:20;;;;;;;20.33;4.00;;;;;;;21.05;72.68;102771.09;10417513;28;20060;-68
2023/05/25 15:57:21;;;;;;;17.58;3.35;;;;;;;20.91;74.90;102783.94;10411911;28;20042;-64
2023/05/25 16:02:21;;;;;;;13.93;3.83;;;;;;;20.77;73.21;102775.25;10397775;28;20459;-67
2023/05/25 16:07:22;;;;;;;17.25;3.13;;;;;;;19.80;75.23;102786.88;10418626;28;20059;-67
2023/05/25 16:12:24;;;;;;;22.75;4.80;;;;;;;19.18;78.00;102802.31;10416338;28;20076;-66
2023/05/25 16:17:25;;;;;;;17.08;4.40;;;;;;;19.42;76.15;102802.81;10399874;28;20041;-68
2023/05/25 16:22:26;;;;;;;14.88;2.90;;;;;;;20.11;75.35;102803.81;10418658;28;20030;-68
2023/05/25 16:27:26;;;;;;;11.82;3.40;;;;;;;20.57;72.60;102790.03;10418901;28;20037;-69
2023/05/25 16:32:28;;;;;;;13.25;3.40;;;;;;;21.44;72.35;102784.56;10412977;28;20077;-69
2023/05/25 16:37:28;;;;;;;14.55;2.55;;;;;;;20.46;72.06;102794.72;10390749;28;20052;-70
2023/05/25 16:42:29;;;;;;;18.02;3.78;;;;;;;19.57;73.90;102804.84;10448855;28;20036;-72
2023/05/25 16:47:29;;;;;;;16.15;4.07;;;;;;;19.49;74.91;102730.81;10447969;28;20045;-67
2023/05/25 16:52:30;;;;;;;20.08;3.08;;;;;;;19.35;73.66;102802.19;10450415;28;20095;-69
2023/05/25 16:57:30;;;;;;;21.58;3.20;;;;;;;18.31;77.68;102809.72;10458691;28;20033;-70
2023/05/25 17:02:31;;;;;;;13.65;4.55;;;;;;;17.26;79.92;102806.75;10456793;28;20040;-71
2023/05/25 17:07:32;;;;;;;18.35;3.33;;;;;;;16.87;82.82;102818.63;10455314;28;20064;-69
2023/05/25 17:12:33;;;;;;;17.58;3.38;;;;;;;16.77;82.50;102817.56;10455256;28;20033;-69
2023/05/25 17:17:33;;;;;;;16.20;3.97;;;;;;;16.34;83.97;102809.47;10455503;28;20033;-70
2023/05/25 17:22:34;;;;;;;15.38;3.45;;;;;;;16.38;83.65;102825.66;10455695;28;20043;-69
2023/05/25 17:27:34;;;;;;;19.02;4.53;;;;;;;15.45;87.18;102840.19;10455395;28;20033;-69
2023/05/25 17:32:35;;;;;;;23.25;4.05;;;;;;;14.95;90.69;102848.88;10431669;28;20033;-69
2023/05/25 17:37:35;;;;;;;17.92;3.45;;;;;;;14.45;93.75;102852.72;10394207;28;20402;-67
2023/05/25 17:42:36;;;;;;;19.25;4.28;;;;;;;14.01;95.89;102863.00;10413667;28;20034;-71
2023/05/25 17:47:37;;;;;;;22.40;4.40;;;;;;;13.82;100.00;102870.44;10437307;28;20045;-71
2023/05/25 17:52:37;;;;;;;29.02;4.55;;;;;;;13.61;100.00;102873.63;10453894;28;20051;-71
2023/05/25 17:57:37;;;;;;;21.63;4.18;;;;;;;13.30;100.00;102872.56;10455512;28;20044;-70
2023/05/25 18:02:38;;;;;;;20.45;4.40;;;;;;;12.95;100.00;102881.28;10436024;28;20041;-70
2023/05/25 18:07:39;;;;;;;27.73;5.18;;;;;;;12.86;100.00;102872.41;10412941;28;20052;-70
2023/05/25 18:12:40;;;;;;;22.88;3.83;;;;;;;12.62;100.00;102876.75;10412682;28;20044;-69
2023/05/25 18:17:40;;;;;;;16.85;3.10;;;;;;;12.60;100.00;102876.13;10432619;28;20039;-70
2023/05/25 18:22:41;;;;;;;21.67;4.93;;;;;;;12.36;100.00;102871.31;10452106;28;20091;-70
2023/05/25 18:27:41;;;;;;;25.15;3.45;;;;;;;12.36;100.00;102882.38;10446242;28;20506;-69
2023/05/25 18:32:42;;;;;;;21.42;4.95;;;;;;;12.20;100.00;102867.16;10434979;28;20045;-69
2023/05/25 18:37:43;;;;;;;26.00;4.45;;;;;;;12.17;100.00;102896.00;10457893;28;20037;-69
2023/05/25 18:42:43;;;;;;;19.95;4.15;;;;;;;11.86;100.00;102878.19;10460119;28;20029;-68
2023/05/25 18:47:44;;;;;;;29.95;5.50;;;;;;;11.74;100.00;102890.97;10459472;28;20048;-68
2023/05/25 18:52:49;;;;;;;26.13;4.53;;;;;;;11.59;100.00;102893.91;10433578;28;20260;-69
2023/05/25 18:57:50;;;;;;;20.67;3.88;;;;;;;11.42;100.00;102901.75;10460213;28;20084;-69
2023/05/25 19:02:50;;;;;;;19.58;4.30;;;;;;;11.23;100.00;102892.41;10447765;28;20071;-69
2023/05/25 19:07:51;;;;;;;25.48;4.88;;;;;;;11.16;100.00;102887.94;10460688;28;20041;-69
2023/05/25 19:12:51;;;;;;;18.05;4.93;;;;;;;11.03;100.00;102897.84;10454345;28;20040;-70
2023/05/25 19:17:52;;;;;;;18.02;3.03;;;;;;;10.59;100.00;102849.63;10419651;28;20562;-69
2023/05/25 19:22:52;;;;;;;22.23;3.50;;;;;;;10.85;100.00;102911.38;10460202;28;20041;-68
2023/05/25 19:27:53;;;;;;;21.27;3.58;;;;;;;10.62;100.00;102909.78;10418272;28;20054;-69
2023/05/25 19:32:53;;;;;;;17.92;3.63;;;;;;;10.59;100.00;102912.97;10352513;28;20125;-68
2023/05/25 19:37:55;;;;;;;21.35;3.70;;;;;;;10.47;100.00;102917.34;10361709;28;20054;-69
2023/05/25 19:42:55;;;;;;;23.25;3.97;;;;;;;10.39;100.00;102926.63;10361612;28;20049;-69
2023/05/25 19:47:56;;;;;;;24.02;3.47;;;;;;;10.25;100.00;102931.19;10358900;28;20054;-69
2023/05/25 19:52:57;;;;;;;24.00;4.25;;;;;;;10.17;100.00;102936.84;10362851;28;20038;-69
2023/05/25 19:57:57;;;;;;;15.07;3.55;;;;;;;10.10;100.00;102941.44;10360428;28;20034;-68
2023/05/25 20:02:58;;;;;;;17.75;3.67;;;;;;;9.99;100.00;102931.00;10358598;28;20097;-69
2023/05/25 20:07:59;;;;;;;17.45;3.22;;;;;;;9.99;100.00;102942.00;10362383;28;20116;-68
2023/05/25 20:13:00;;;;;;;17.70;4.97;;;;;;;9.88;100.00;102941.50;10358755;28;20029;-68
2023/05/25 20:18:01;;;;;;;18.05;4.28;;;;;;;9.81;100.00;102940.56;10359016;28;20093;-68
2023/05/25 20:23:01;;;;;;;18.30;4.32;;;;;;;9.72;100.00;102936.28;10360432;28;20054;-68
2023/05/25 20:28:02;;;;;;;20.70;4.55;;;;;;;9.61;100.00;102939.53;10359046;28;20042;-68
2023/05/25 20:33:02;;;;;;;17.70;4.57;;;;;;;9.52;100.00;102949.00;10354962;28;20038;-69
2023/05/25 20:38:03;;;;;;;21.00;3.95;;;;;;;9.48;100.00;102941.13;10359701;28;20038;-68
2023/05/25 20:43:04;;;;;;;16.38;3.30;;;;;;;9.45;100.00;102958.03;10356475;28;20125;-67
2023/05/25 20:48:04;;;;;;;20.50;4.95;;;;;;;9.29;100.00;102937.13;10360305;28;20054;-67
2023/05/25 20:53:06;;;;;;;19.38;4.15;;;;;;;9.33;100.00;102954.09;10358831;28;20049;-68
2023/05/25 20:58:07;;;;;;;26.58;5.10;;;;;;;9.23;100.00;102942.56;10358127;28;20036;-68
2023/05/25 21:03:07;;;;;;;20.95;4.72;;;;;;;9.22;100.00;102947.22;10355417;28;20050;-67
2023/05/25 21:08:09;;;;;;;24.80;3.83;;;;;;;9.19;100.00;102952.22;10358452;28;20089;-68
2023/05/25 21:13:09;;;;;;;27.75;5.55;;;;;;;9.13;100.00;102955.75;10358709;28;20030;-67
2023/05/25 21:18:10;;;;;;;17.25;4.47;;;;;;;9.05;100.00;102962.22;10354557;28;20509;-67
2023/05/25 21:23:10;;;;;;;27.63;6.13;;;;;;;9.01;100.00;102961.78;10352421;28;20497;-67
2023/05/25 21:28:11;;;;;;;21.48;4.57;;;;;;;8.96;100.00;102960.63;10340333;28;20084;-68
2023/05/25 21:33:11;;;;;;;22.52;4.32;;;;;;;8.93;100.00;102961.00;10356017;28;20042;-67
2023/05/25 21:38:12;;;;;;;22.67;4.10;;;;;;;8.86;100.00;102964.53;10350373;28;20394;-68
2023/05/25 21:43:13;;;;;;;27.63;5.07;;;;;;;8.75;100.00;102955.94;10355979;28;20042;-69
2023/05/25 21:48:13;;;;;;;15.43;3.30;;;;;;;8.74;100.00;102963.31;10350836;28;20697;-69
2023/05/25 21:53:15;;;;;;;20.27;4.93;;;;;;;8.71;100.00;102968.34;10383954;28;20053;-66
2023/05/25 21:58:16;;;;;;;26.15;4.85;;;;;;;8.64;100.00;102971.84;10388441;28;20038;-68
2023/05/25 22:03:17;;;;;;;21.52;4.18;;;;;;;8.58;100.00;102956.13;10395711;28;20046;-68
2023/05/25 22:08:17;;;;;;;19.80;4.07;;;;;;;8.57;100.00;102959.91;10394179;28;20046;-68
2023/05/25 22:13:18;;;;;;;20.85;3.85;;;;;;;8.53;100.00;102961.31;10409426;28;20037;-67
2023/05/25 22:18:18;;;;;;;23.92;4.30;;;;;;;8.48;100.00;102972.88;10418600;28;20033;-68
2023/05/25 22:23:19;;;;;;;18.77;3.17;;;;;;;8.42;100.00;102979.13;10413031;28;20040;-68
2023/05/25 22:28:19;;;;;;;18.35;4.75;;;;;;;8.34;100.00;102968.22;10409813;28;20114;-69
2023/05/25 22:33:20;;;;;;;23.42;4.80;;;;;;;8.29;100.00;102963.28;10391691;28;20033;-69
2023/05/25 22:38:20;;;;;;;15.35;4.57;;;;;;;8.27;100.00;102965.38;10414643;28;20026;-68
2023/05/25 22:43:25;;;;;;;17.92;3.85;;;;;;;8.23;100.00;102976.91;10414978;28;20072;-69
2023/05/25 22:48:26;;;;;;;19.77;4.60;;;;;;;8.18;100.00;102957.41;10420284;28;20502;-69